ROTAER D-AMDT 10/24 Ver mudanças

Urucu ( SBUY ) / COARI, AM 04 52 59S/065 21 21W
AD PRIV UTC-4 VFR IFR L21 , L26 64 (210)

09 - L9 [1] , L12 - ( 1320x30 ASPH 14/F/D/X/T L14 , L15 ) - L12 - 27

SBAZ (CINDACTA 4)
COM -
RÁDIO URUCU [2] [3] 131.850
CMB- TF [2] RFFS - CAT - 2
MET - MET CIVIL –

[2] [3] CMA 1,2,3,4

AIS - AIS CIVIL – [2] [3]

RMK -

REGULAMENTOS PARA TRÁFEGO LOCAL
  1. OPS ACFT CIV somente com prévia CLR da PETROBRAS através dos telefones: (92) 3616-6561, (92) 3616-6400 ou (92) 3616-6405
INFORMAÇÃO ADICIONAL
  1. AIS PLN e suas atualizações compulsória apresentação somente pela internet ou pelos TEL do C-AIS Amazônico, sala AIS Belém, Boa Vista e Porto Velho.
COMPL -
  • [1] MEHT: 52FT
  • [2] OPR PETROBRAS S/A
  • [3] (DLY 1030-2230)
TEMP (0)

Suplementos AIP (0)

NOTAM (Carregando ...)


Nascer/Por do Sol

10:22

22:14


METAR

METAR SBUY 262300Z 19002KT 9999 BKN010 25/24 Q1011=

TAF


OPEA/Obstáculos


Cartas (4)

IAC


SID



Rotas Preferenciais (0)